Log Lane Village, CO

2:11 PM MDT on July 24, 2014 (GMT -0600)
Fort Morgan (KFMM) Elev 4570 ft | 40.33 °N, 103.80 °W | Change Station

Current weather conditions updated 16 minutes ago

Clear
Clear
101 °F
Feels Like 101 °F
N
5
Wind Variable Wind from SSW

Today is forecast to be Much Warmer than yesterday.

Today
High -- | Low -- °F
--% Chance of Precip.
Yesterday
High -- | Low -- °F
Precip. -- in
5:45 AM 8:17 PM
Waning Crescent, 4% visible
Pressure 29.98 in
Visibility 10.0 miles
Clouds Clear
Dew Point 38 °F
Humidity 12%
Rainfall 0.00 in
Snow Depth Not available.
UV 12 out of 12
Pollen 7.40 out of 12
Air Quality Not available.
Flu Activity Not available.
METAR KFMM 241955Z AUTO 20004KT 10SM CLR 38/04 A2998 RMK AO2 T03820036 PWINO

More Conditions Fewer Conditions

Pressure 29.98 in
Visibility 10.0 miles
Clouds Clear
Dew Point 38 °F
Humidity 12%
Rainfall 0.00 in
Snow Depth Not available.
UV 12 out of 12
Pollen 7.40 out of 12
Air Quality Not available.
Flu Activity Not available.
METAR KFMM 241955Z AUTO 20004KT 10SM CLR 38/04 A2998 RMK AO2 T03820036 PWINO

More Conditions Fewer Conditions

10-Day Weather Forecast

Almanac

Astronomy

Jul. 24, 2014 Rise Set
Actual Time 5:45 AM MDT 8:17 PM MDT
Civil Twilight 5:14 AM MDT 8:48 PM MDT
Nautical Twilight 4:35 AM MDT 9:27 PM MDT
Astronomical Twilight 3:52 AM MDT 10:10 PM MDT
Moon 3:55 AM MDT 6:34 PM MDT
Length of Visible Light 15h 33m
Length of Day
14h 31m
Tomorrow will be 1m 47s shorter.
Waning Crescent, 4% of the Moon is Illuminated
Today
Waning Crescent
Jul 26
New
Aug 3
First Quarter
Aug 10
Full
Aug 17
Last Quarter

Today's Extremes

State Highs State Lows

Community

WunderPhotos

Upload Photos

1,737,108 photos uploaded!

Nearby

Snow Depth

Station Depth Elevation
Niwot 0 in 9910 ft
Lake Irene 1 in 10700 ft
Grizzly Peak 4 in 11100 ft
Rawah 16 in 9020 ft
Vail Mountain 0 in 10300 ft

Earthquake Activity

City Distance Mag. Time & Date
No recent earthquake activity has been reported nearby.
Minimum magnitude displayed is 2.5.

Coastal Water Temperatures

Place Temperature
No Stations Reporting

Nearby Weather Stations

Station Location Temp. Heat Index Dew Point Humidity Wind Precip. Elev Updated Type
Fort Morgan, Fort Morgan, CO 101.7 °F 96 °F 35 °F 10% WNW  at  2.2 mph 0.00 in / hr 4327 ft 2:11 PM MDT Rapid Fire

Show More Stations Show Fewer Stations